Etusivu
METAR-TAF:

METAR-TAF

Lentoasemat :

McAllen, Texas, Yhdysvallat

Leveyspiiri: 26-10-47N, Pituuspiiri: 098-14-40W, korkeus merenpinnasta: 32 m

Tämänhetkinen sää

Tämä raportti tehtiin 29 minuuttia sitten, kello 04.53 UTC
Tuuli 5 kn kaakosta
Lämpötila 13°C
Kosteus 44%
Ilmanpaine 1029 hPa
Näkyvyys: 16.1 km
selkeää

METAR: KMFE 290453Z 13005KT 10SM CLR 13/01 A3038 RMK AO2 SLP287 T01280006

Aika: 23:22 (05:22 UTC)

Sääennuste

Tämä raportti tehtiin 6 tuntia ja 2 minuuttia sitten, kello 23.20 UTC
Ennuste voimassa 29. päivästä klo 00 UTC - 29. päivään klo 24 UTC
Tuuli 8 kn idästä
Näkyvyys: 10 km
Muutamia pilviä 25000 ft:n korkeudessa
From 29. päivästä klo 1700 UTC
Tuuli 12 kn etelästä/kaakosta
Näkyvyys: 10 km
Hajanaisia pilviä 25000 ft:n korkeudessa

TAF: KMFE 282320Z 2900/2924 10008KT P6SM FEW250 FM291700 15012KT P6SM SCT250

Säähavainnot ja -ennusteet yli 4000 lentoasemalta (METAR- ja TAF-raportit).

Käytössä olevat sääasemat on merkitty karttaan keltaisilla ja punaisilla pisteillä.

Aseta hiiri pisteen päälle nähdäksesi sääaseman nimen.

Klikkaa sitten nähdäksesi säähavainnot ja -ennusteet.

Kartan vaihtaminen: klikkaa mustalla rastilla varustettuja vihreitä pisteitä, niin voit zoomata sisään; viivalla varustettua vihreää pistettä, niin voit zoomata ulos tai vihreitä nuolia, niin pääset viereisille kartoille.


METAR-TAF: